sensor_id;sensor_type;location;lat;lon;timestamp;pressure;altitude;pressure_sealevel;temperature;humidity
36692;BME280;22678;52.052;4.242;2023-03-02T00:00:04;102640.94;;;3.23;62.97
36692;BME280;22678;52.052;4.242;2023-03-02T00:02:37;102639.63;;;3.15;63.13
36692;BME280;22678;52.052;4.242;2023-03-02T00:05:05;102622.63;;;3.04;63.19
36692;BME280;22678;52.052;4.242;2023-03-02T00:07:33;102650.72;;;3.11;63.49
36692;BME280;22678;52.052;4.242;2023-03-02T00:09:58;102667.50;;;3.18;64.17
36692;BME280;22678;52.052;4.242;2023-03-02T00:12:28;102673.44;;;3.15;64.32
36692;BME280;22678;52.052;4.242;2023-03-02T00:14:55;102664.38;;;3.07;64.51
36692;BME280;22678;52.052;4.242;2023-03-02T00:17:20;102641.88;;;2.91;64.82
36692;BME280;22678;52.052;4.242;2023-03-02T00:19:55;102651.72;;;2.96;65.16
36692;BME280;22678;52.052;4.242;2023-03-02T00:22:39;102651.53;;;2.93;65.43
36692;BME280;22678;52.052;4.242;2023-03-02T00:25:05;102615.84;;;2.73;66.03
36692;BME280;22678;52.052;4.242;2023-03-02T00:27:30;102641.16;;;2.93;66.04
36692;BME280;22678;52.052;4.242;2023-03-02T00:29:56;102641.72;;;2.88;66.67
36692;BME280;22678;52.052;4.242;2023-03-02T00:32:22;102626.69;;;2.82;67.61
36692;BME280;22678;52.052;4.242;2023-03-02T00:34:48;102635.44;;;2.84;68.48
36692;BME280;22678;52.052;4.242;2023-03-02T00:37:13;102599.94;;;2.67;69.43
36692;BME280;22678;52.052;4.242;2023-03-02T00:39:39;102631.91;;;2.82;69.62
36692;BME280;22678;52.052;4.242;2023-03-02T00:42:04;102642.44;;;2.85;70.15
36692;BME280;22678;52.052;4.242;2023-03-02T00:44:29;102605.13;;;2.67;70.44
36692;BME280;22678;52.052;4.242;2023-03-02T00:46:55;102638.56;;;2.77;71.14
36692;BME280;22678;52.052;4.242;2023-03-02T00:49:20;102628.81;;;2.73;71.44
36692;BME280;22678;52.052;4.242;2023-03-02T00:51:45;102638.72;;;2.80;71.48
36692;BME280;22678;52.052;4.242;2023-03-02T00:54:11;102625.16;;;2.69;71.98
36692;BME280;22678;52.052;4.242;2023-03-02T00:56:36;102596.34;;;2.48;71.86
36692;BME280;22678;52.052;4.242;2023-03-02T00:59:06;102641.09;;;2.75;72.36
36692;BME280;22678;52.052;4.242;2023-03-02T01:01:36;102626.78;;;2.67;72.60
36692;BME280;22678;52.052;4.242;2023-03-02T01:04:02;102606.91;;;2.51;72.34
36692;BME280;22678;52.052;4.242;2023-03-02T01:06:27;102616.66;;;2.55;73.08
36692;BME280;22678;52.052;4.242;2023-03-02T01:08:53;102627.28;;;2.60;73.27
36692;BME280;22678;52.052;4.242;2023-03-02T01:11:20;102625.75;;;2.63;73.82
36692;BME280;22678;52.052;4.242;2023-03-02T01:13:46;102614.69;;;2.51;74.27
36692;BME280;22678;52.052;4.242;2023-03-02T01:16:13;102631.75;;;2.62;74.51
36692;BME280;22678;52.052;4.242;2023-03-02T01:18:39;102618.91;;;2.49;74.64
36692;BME280;22678;52.052;4.242;2023-03-02T01:21:07;102625.97;;;2.52;74.78
36692;BME280;22678;52.052;4.242;2023-03-02T01:23:33;102617.69;;;2.42;75.18
36692;BME280;22678;52.052;4.242;2023-03-02T01:25:59;102622.41;;;2.50;75.09
36692;BME280;22678;52.052;4.242;2023-03-02T01:28:24;102608.84;;;2.39;75.24
36692;BME280;22678;52.052;4.242;2023-03-02T01:30:50;102617.94;;;2.47;75.56
36692;BME280;22678;52.052;4.242;2023-03-02T01:33:15;102618.00;;;2.49;76.11
36692;BME280;22678;52.052;4.242;2023-03-02T01:35:43;102619.63;;;2.47;76.68
36692;BME280;22678;52.052;4.242;2023-03-02T01:38:09;102610.97;;;2.46;76.71
36692;BME280;22678;52.052;4.242;2023-03-02T01:40:34;102616.16;;;2.46;77.42
36692;BME280;22678;52.052;4.242;2023-03-02T01:43:00;102597.38;;;2.35;77.69
36692;BME280;22678;52.052;4.242;2023-03-02T01:51:16;102603.56;;;2.37;78.50
36692;BME280;22678;52.052;4.242;2023-03-02T01:53:43;102612.25;;;2.38;78.60
36692;BME280;22678;52.052;4.242;2023-03-02T01:56:14;102611.13;;;2.33;79.20
36692;BME280;22678;52.052;4.242;2023-03-02T01:58:41;102606.72;;;2.32;79.23
36692;BME280;22678;52.052;4.242;2023-03-02T02:01:08;102604.59;;;2.24;79.79
36692;BME280;22678;52.052;4.242;2023-03-02T02:03:41;102617.91;;;2.31;80.02
36692;BME280;22678;52.052;4.242;2023-03-02T02:06:16;102608.00;;;2.23;80.68
36692;BME280;22678;52.052;4.242;2023-03-02T02:08:43;102608.16;;;2.26;80.83
36692;BME280;22678;52.052;4.242;2023-03-02T02:11:10;102606.88;;;2.18;81.12
36692;BME280;22678;52.052;4.242;2023-03-02T02:13:36;102603.38;;;2.18;81.79
36692;BME280;22678;52.052;4.242;2023-03-02T02:16:03;102592.91;;;2.16;82.09
36692;BME280;22678;52.052;4.242;2023-03-02T02:18:28;102608.22;;;2.12;82.38
36692;BME280;22678;52.052;4.242;2023-03-02T02:20:54;102602.00;;;2.08;82.86
36692;BME280;22678;52.052;4.242;2023-03-02T02:23:49;102598.56;;;2.09;82.81
36692;BME280;22678;52.052;4.242;2023-03-02T02:26:24;102594.84;;;2.04;82.86
36692;BME280;22678;52.052;4.242;2023-03-02T02:29:02;102594.69;;;2.01;83.05
36692;BME280;22678;52.052;4.242;2023-03-02T02:31:46;102585.56;;;1.92;83.31
36692;BME280;22678;52.052;4.242;2023-03-02T02:36:50;102586.31;;;1.90;83.39
36692;BME280;22678;52.052;4.242;2023-03-02T02:39:29;102593.25;;;1.91;83.29
36692;BME280;22678;52.052;4.242;2023-03-02T02:41:58;102581.66;;;1.84;83.32
36692;BME280;22678;52.052;4.242;2023-03-02T02:44:25;102595.59;;;1.86;83.57
36692;BME280;22678;52.052;4.242;2023-03-02T02:46:50;102573.44;;;1.77;83.90
36692;BME280;22678;52.052;4.242;2023-03-02T02:49:38;102592.03;;;1.84;83.99
36692;BME280;22678;52.052;4.242;2023-03-02T02:52:05;102593.66;;;1.82;83.70
36692;BME280;22678;52.052;4.242;2023-03-02T02:54:32;102589.00;;;1.77;84.00
36692;BME280;22678;52.052;4.242;2023-03-02T02:57:00;102582.75;;;1.73;84.06
36692;BME280;22678;52.052;4.242;2023-03-02T02:59:50;102589.00;;;1.77;83.96
36692;BME280;22678;52.052;4.242;2023-03-02T03:02:21;102588.13;;;1.76;84.12
36692;BME280;22678;52.052;4.242;2023-03-02T03:04:47;102582.84;;;1.74;84.12
36692;BME280;22678;52.052;4.242;2023-03-02T03:07:24;102580.72;;;1.67;84.12
36692;BME280;22678;52.052;4.242;2023-03-02T03:10:22;102583.47;;;1.70;84.41
36692;BME280;22678;52.052;4.242;2023-03-02T03:12:50;102579.84;;;1.67;83.73
36692;BME280;22678;52.052;4.242;2023-03-02T03:15:15;102572.69;;;1.63;84.04
36692;BME280;22678;52.052;4.242;2023-03-02T03:17:47;102575.44;;;1.66;84.11
36692;BME280;22678;52.052;4.242;2023-03-02T03:20:13;102577.94;;;1.64;84.13
36692;BME280;22678;52.052;4.242;2023-03-02T03:22:40;102559.22;;;1.53;84.32
36692;BME280;22678;52.052;4.242;2023-03-02T03:25:06;102567.78;;;1.52;84.40
36692;BME280;22678;52.052;4.242;2023-03-02T03:27:31;102565.97;;;1.51;84.70
36692;BME280;22678;52.052;4.242;2023-03-02T03:29:56;102572.78;;;1.49;84.71
36692;BME280;22678;52.052;4.242;2023-03-02T03:32:22;102574.75;;;1.53;84.67
36692;BME280;22678;52.052;4.242;2023-03-02T03:34:47;102575.22;;;1.46;84.57
36692;BME280;22678;52.052;4.242;2023-03-02T03:37:15;102561.16;;;1.43;85.33
36692;BME280;22678;52.052;4.242;2023-03-02T03:39:41;102559.50;;;1.43;84.99
36692;BME280;22678;52.052;4.242;2023-03-02T03:42:07;102576.19;;;1.48;85.10
36692;BME280;22678;52.052;4.242;2023-03-02T03:44:33;102572.63;;;1.46;85.49
36692;BME280;22678;52.052;4.242;2023-03-02T03:46:58;102559.50;;;1.43;85.61
36692;BME280;22678;52.052;4.242;2023-03-02T03:49:24;102572.44;;;1.43;85.63
36692;BME280;22678;52.052;4.242;2023-03-02T03:51:49;102555.47;;;1.33;85.10
36692;BME280;22678;52.052;4.242;2023-03-02T03:54:15;102574.88;;;1.40;85.23
36692;BME280;22678;52.052;4.242;2023-03-02T03:56:43;102579.06;;;1.38;85.40
36692;BME280;22678;52.052;4.242;2023-03-02T03:59:11;102579.59;;;1.32;85.43
36692;BME280;22678;52.052;4.242;2023-03-02T04:04:11;102595.88;;;1.30;85.23
36692;BME280;22678;52.052;4.242;2023-03-02T04:06:37;102594.09;;;1.29;85.67
36692;BME280;22678;52.052;4.242;2023-03-02T04:09:03;102581.56;;;1.21;85.59
36692;BME280;22678;52.052;4.242;2023-03-02T04:11:35;102579.69;;;1.19;85.72
36692;BME280;22678;52.052;4.242;2023-03-02T04:14:01;102596.34;;;1.22;85.69
36692;BME280;22678;52.052;4.242;2023-03-02T04:16:27;102590.88;;;1.18;85.65
36692;BME280;22678;52.052;4.242;2023-03-02T04:18:53;102575.53;;;1.06;85.57
36692;BME280;22678;52.052;4.242;2023-03-02T04:21:19;102595.97;;;1.16;85.95
36692;BME280;22678;52.052;4.242;2023-03-02T04:23:45;102586.06;;;1.09;85.99
36692;BME280;22678;52.052;4.242;2023-03-02T04:26:10;102582.28;;;1.04;85.73
36692;BME280;22678;52.052;4.242;2023-03-02T04:28:36;102587.66;;;1.07;85.69
36692;BME280;22678;52.052;4.242;2023-03-02T04:31:01;102591.78;;;1.03;85.78
36692;BME280;22678;52.052;4.242;2023-03-02T04:33:26;102583.72;;;0.99;86.06
36692;BME280;22678;52.052;4.242;2023-03-02T04:35:51;102588.34;;;1.04;85.88
36692;BME280;22678;52.052;4.242;2023-03-02T04:38:19;102594.44;;;1.05;86.19
36692;BME280;22678;52.052;4.242;2023-03-02T04:40:44;102571.41;;;0.95;86.03
36692;BME280;22678;52.052;4.242;2023-03-02T04:43:10;102577.47;;;0.95;86.24
36692;BME280;22678;52.052;4.242;2023-03-02T04:45:35;102584.44;;;0.96;86.66
36692;BME280;22678;52.052;4.242;2023-03-02T04:48:00;102571.22;;;0.92;86.27
36692;BME280;22678;52.052;4.242;2023-03-02T04:50:26;102590.69;;;1.00;86.50
36692;BME280;22678;52.052;4.242;2023-03-02T04:52:51;102570.94;;;0.87;86.40
36692;BME280;22678;52.052;4.242;2023-03-02T04:55:18;102578.16;;;0.93;86.41
36692;BME280;22678;52.052;4.242;2023-03-02T04:57:44;102594.63;;;0.93;86.73
36692;BME280;22678;52.052;4.242;2023-03-02T05:00:10;102562.97;;;0.84;86.97
36692;BME280;22678;52.052;4.242;2023-03-02T05:02:37;102591.31;;;0.96;87.07
36692;BME280;22678;52.052;4.242;2023-03-02T05:05:02;102573.81;;;0.92;87.06
36692;BME280;22678;52.052;4.242;2023-03-02T05:07:29;102589.72;;;0.98;87.11
36692;BME280;22678;52.052;4.242;2023-03-02T05:09:54;102582.63;;;0.95;87.08
36692;BME280;22678;52.052;4.242;2023-03-02T05:12:20;102593.91;;;0.96;87.19
36692;BME280;22678;52.052;4.242;2023-03-02T05:14:45;102586.59;;;0.89;87.48
36692;BME280;22678;52.052;4.242;2023-03-02T05:17:11;102577.09;;;0.89;87.57
36692;BME280;22678;52.052;4.242;2023-03-02T05:19:36;102580.56;;;0.90;87.58
36692;BME280;22678;52.052;4.242;2023-03-02T05:22:01;102530.53;;;0.61;87.77
36692;BME280;22678;52.052;4.242;2023-03-02T05:24:27;102570.94;;;0.87;87.88
36692;BME280;22678;52.052;4.242;2023-03-02T05:26:52;102576.13;;;0.87;87.81
36692;BME280;22678;52.052;4.242;2023-03-02T05:29:17;102568.28;;;0.85;88.00
36692;BME280;22678;52.052;4.242;2023-03-02T05:31:45;102574.34;;;0.86;88.33
36692;BME280;22678;52.052;4.242;2023-03-02T05:34:13;102569.75;;;0.82;88.16
36692;BME280;22678;52.052;4.242;2023-03-02T05:36:40;102573.44;;;0.85;88.32
36692;BME280;22678;52.052;4.242;2023-03-02T05:39:06;102570.66;;;0.82;88.47
36692;BME280;22678;52.052;4.242;2023-03-02T05:41:32;102579.41;;;0.84;88.02
36692;BME280;22678;52.052;4.242;2023-03-02T05:43:58;102575.81;;;0.82;88.44
36692;BME280;22678;52.052;4.242;2023-03-02T05:46:23;102568.63;;;0.77;88.53
36692;BME280;22678;52.052;4.242;2023-03-02T05:48:49;102568.53;;;0.75;88.80
36692;BME280;22678;52.052;4.242;2023-03-02T05:51:15;102582.53;;;0.79;89.16
36692;BME280;22678;52.052;4.242;2023-03-02T05:53:40;102568.53;;;0.75;88.92
36692;BME280;22678;52.052;4.242;2023-03-02T05:56:06;102559.56;;;0.70;89.17
36692;BME280;22678;52.052;4.242;2023-03-02T05:58:31;102585.22;;;0.80;89.34
36692;BME280;22678;52.052;4.242;2023-03-02T06:00:57;102577.25;;;0.77;89.27
36692;BME280;22678;52.052;4.242;2023-03-02T06:03:22;102584.94;;;0.76;89.32
36692;BME280;22678;52.052;4.242;2023-03-02T06:05:48;102576.06;;;0.72;89.74
36692;BME280;22678;52.052;4.242;2023-03-02T06:08:18;102569.94;;;0.70;89.54
36692;BME280;22678;52.052;4.242;2023-03-02T06:10:44;102584.69;;;0.71;90.05
36692;BME280;22678;52.052;4.242;2023-03-02T06:13:10;102582.88;;;0.70;89.83
36692;BME280;22678;52.052;4.242;2023-03-02T06:15:35;102584.69;;;0.71;89.85
36692;BME280;22678;52.052;4.242;2023-03-02T06:18:01;102592.44;;;0.71;89.79
36692;BME280;22678;52.052;4.242;2023-03-02T06:20:27;102592.25;;;0.68;89.61
36692;BME280;22678;52.052;4.242;2023-03-02T06:22:52;102595.81;;;0.70;89.69
36692;BME280;22678;52.052;4.242;2023-03-02T06:25:20;102608.06;;;0.73;90.00
36692;BME280;22678;52.052;4.242;2023-03-02T06:27:46;102603.59;;;0.70;90.10
36692;BME280;22678;52.052;4.242;2023-03-02T06:30:17;102600.91;;;0.68;90.19
36692;BME280;22678;52.052;4.242;2023-03-02T06:32:42;102590.28;;;0.64;90.19
36692;BME280;22678;52.052;4.242;2023-03-02T06:35:09;102591.25;;;0.66;90.81
36692;BME280;22678;52.052;4.242;2023-03-02T06:37:35;102609.03;;;0.75;90.93
36692;BME280;22678;52.052;4.242;2023-03-02T06:40:00;102610.84;;;0.76;90.82
36692;BME280;22678;52.052;4.242;2023-03-02T06:42:26;102610.06;;;0.77;91.26
36692;BME280;22678;52.052;4.242;2023-03-02T06:44:52;102600.47;;;0.76;91.51
36692;BME280;22678;52.052;4.242;2023-03-02T06:47:20;102606.53;;;0.76;91.60
36692;BME280;22678;52.052;4.242;2023-03-02T06:49:45;102593.50;;;0.75;91.42
36692;BME280;22678;52.052;4.242;2023-03-02T06:52:11;102598.88;;;0.78;91.84
36692;BME280;22678;52.052;4.242;2023-03-02T06:54:37;102610.31;;;0.81;91.58
36692;BME280;22678;52.052;4.242;2023-03-02T06:57:03;102611.03;;;0.79;91.85
36692;BME280;22678;52.052;4.242;2023-03-02T06:59:28;102613.00;;;0.83;91.97
36692;BME280;22678;52.052;4.242;2023-03-02T07:01:53;102621.94;;;0.88;92.11
36692;BME280;22678;52.052;4.242;2023-03-02T07:04:19;102610.50;;;0.84;92.38
36692;BME280;22678;52.052;4.242;2023-03-02T07:06:44;102624.59;;;0.90;91.95
36692;BME280;22678;52.052;4.242;2023-03-02T07:09:09;102608.88;;;0.86;92.39
36692;BME280;22678;52.052;4.242;2023-03-02T07:11:35;102622.09;;;0.91;92.73
36692;BME280;22678;52.052;4.242;2023-03-02T07:14:00;102616.94;;;0.91;92.61
36692;BME280;22678;52.052;4.242;2023-03-02T07:16:26;102603.72;;;0.86;92.36
36692;BME280;22678;52.052;4.242;2023-03-02T07:18:51;102616.31;;;0.95;92.59
36692;BME280;22678;52.052;4.242;2023-03-02T07:21:16;102618.38;;;1.01;92.80
36692;BME280;22678;52.052;4.242;2023-03-02T07:23:42;102615.00;;;1.02;92.79
36692;BME280;22678;52.052;4.242;2023-03-02T07:26:07;102617.25;;;1.11;92.86
36692;BME280;22678;52.052;4.242;2023-03-02T07:28:37;102610.34;;;1.11;93.13
36692;BME280;22678;52.052;4.242;2023-03-02T07:31:07;102610.09;;;1.21;93.13
36692;BME280;22678;52.052;4.242;2023-03-02T07:33:33;102628.06;;;1.33;92.94
36692;BME280;22678;52.052;4.242;2023-03-02T07:35:59;102622.34;;;1.39;93.05
36692;BME280;22678;52.052;4.242;2023-03-02T07:38:24;102630.81;;;1.51;93.40
36692;BME280;22678;52.052;4.242;2023-03-02T07:40:49;102610.63;;;1.61;93.31
36692;BME280;22678;52.052;4.242;2023-03-02T07:43:15;102613.19;;;1.75;92.61
36692;BME280;22678;52.052;4.242;2023-03-02T07:45:40;102615.09;;;1.95;93.11
36692;BME280;22678;52.052;4.242;2023-03-02T07:48:06;102614.13;;;2.40;91.73
36692;BME280;22678;52.052;4.242;2023-03-02T07:50:31;102622.31;;;2.65;89.82
36692;BME280;22678;52.052;4.242;2023-03-02T07:52:57;102623.38;;;2.68;89.30
36692;BME280;22678;52.052;4.242;2023-03-02T07:55:22;102621.59;;;2.67;88.68
36692;BME280;22678;52.052;4.242;2023-03-02T07:57:48;102629.16;;;2.62;88.78
36692;BME280;22678;52.052;4.242;2023-03-02T08:00:14;102629.78;;;2.58;88.76
36692;BME280;22678;52.052;4.242;2023-03-02T08:02:40;102622.72;;;2.56;89.29
36692;BME280;22678;52.052;4.242;2023-03-02T08:05:06;102630.59;;;2.57;89.17
36692;BME280;22678;52.052;4.242;2023-03-02T08:07:32;102619.63;;;2.63;88.74
36692;BME280;22678;52.052;4.242;2023-03-02T08:09:58;102613.88;;;2.69;88.29
36692;BME280;22678;52.052;4.242;2023-03-02T08:12:25;102602.91;;;2.74;88.32
36692;BME280;22678;52.052;4.242;2023-03-02T08:14:50;102583.75;;;2.72;88.17
36692;BME280;22678;52.052;4.242;2023-03-02T08:17:16;102588.25;;;2.93;88.18
36692;BME280;22678;52.052;4.242;2023-03-02T08:19:41;102604.56;;;3.07;86.88
36692;BME280;22678;52.052;4.242;2023-03-02T08:22:06;102606.84;;;3.17;87.00
36692;BME280;22678;52.052;4.242;2023-03-02T08:24:32;102607.34;;;3.28;86.18
36692;BME280;22678;52.052;4.242;2023-03-02T08:27:01;102607.81;;;3.37;85.74
36692;BME280;22678;52.052;4.242;2023-03-02T08:29:27;102591.75;;;3.46;85.36
36692;BME280;22678;52.052;4.242;2023-03-02T08:31:52;102602.34;;;3.49;83.83
36692;BME280;22678;52.052;4.242;2023-03-02T08:34:17;102588.66;;;3.53;84.15
36692;BME280;22678;52.052;4.242;2023-03-02T08:36:43;102596.22;;;3.66;83.34
36692;BME280;22678;52.052;4.242;2023-03-02T08:39:09;102603.84;;;3.80;82.86
36692;BME280;22678;52.052;4.242;2023-03-02T08:41:34;102607.22;;;3.97;82.81
36692;BME280;22678;52.052;4.242;2023-03-02T08:44:00;102596.28;;;4.04;82.08
36692;BME280;22678;52.052;4.242;2023-03-02T08:46:25;102591.44;;;4.12;81.22
36692;BME280;22678;52.052;4.242;2023-03-02T08:48:50;102604.47;;;4.31;81.07
36692;BME280;22678;52.052;4.242;2023-03-02T08:51:19;102596.19;;;4.40;79.97
36692;BME280;22678;52.052;4.242;2023-03-02T08:53:47;102603.66;;;4.52;79.91
36692;BME280;22678;52.052;4.242;2023-03-02T08:56:24;102599.16;;;4.67;79.13
36692;BME280;22678;52.052;4.242;2023-03-02T08:58:51;102600.66;;;4.82;78.71
36692;BME280;22678;52.052;4.242;2023-03-02T09:01:20;102596.94;;;4.96;77.98
36692;BME280;22678;52.052;4.242;2023-03-02T09:03:45;102602.66;;;5.08;77.35
36692;BME280;22678;52.052;4.242;2023-03-02T09:06:11;102605.09;;;5.25;76.80
36692;BME280;22678;52.052;4.242;2023-03-02T09:08:37;102588.81;;;5.31;76.49
36692;BME280;22678;52.052;4.242;2023-03-02T09:11:03;102594.66;;;5.46;75.46
36692;BME280;22678;52.052;4.242;2023-03-02T09:13:28;102578.97;;;5.46;74.73
36692;BME280;22678;52.052;4.242;2023-03-02T09:15:53;102588.09;;;5.56;73.64
36692;BME280;22678;52.052;4.242;2023-03-02T09:18:19;102596.41;;;5.68;72.67
36692;BME280;22678;52.052;4.242;2023-03-02T09:20:48;102589.78;;;5.76;73.25
36692;BME280;22678;52.052;4.242;2023-03-02T09:23:14;102586.69;;;5.87;72.42
36692;BME280;22678;52.052;4.242;2023-03-02T09:25:39;102580.94;;;5.95;71.30
36692;BME280;22678;52.052;4.242;2023-03-02T09:28:04;102580.44;;;6.04;68.87
36692;BME280;22678;52.052;4.242;2023-03-02T09:30:31;102567.38;;;6.04;67.75
36692;BME280;22678;52.052;4.242;2023-03-02T09:32:56;102582.59;;;6.14;67.77
36692;BME280;22678;52.052;4.242;2023-03-02T09:35:22;102577.59;;;6.21;66.62
36692;BME280;22678;52.052;4.242;2023-03-02T09:37:47;102573.31;;;6.23;64.69
36692;BME280;22678;52.052;4.242;2023-03-02T09:40:19;102580.94;;;6.41;64.59
36692;BME280;22678;52.052;4.242;2023-03-02T09:45:21;102580.28;;;6.46;61.14
36692;BME280;22678;52.052;4.242;2023-03-02T09:54:03;102583.56;;;6.89;59.88
36692;BME280;22678;52.052;4.242;2023-03-02T09:56:34;102581.81;;;6.90;58.67
36692;BME280;22678;52.052;4.242;2023-03-02T09:59:17;102585.59;;;6.98;57.70
36692;BME280;22678;52.052;4.242;2023-03-02T10:01:51;102582.22;;;7.02;57.61
36692;BME280;22678;52.052;4.242;2023-03-02T10:04:23;102583.34;;;7.09;57.48
36692;BME280;22678;52.052;4.242;2023-03-02T10:07:10;102582.13;;;7.25;57.02
36692;BME280;22678;52.052;4.242;2023-03-02T10:09:37;102580.53;;;7.30;55.64
36692;BME280;22678;52.052;4.242;2023-03-02T10:14:56;102571.91;;;7.32;55.70
36692;BME280;22678;52.052;4.242;2023-03-02T10:20:07;102572.66;;;7.56;55.59
36692;BME280;22678;52.052;4.242;2023-03-02T10:22:43;102572.22;;;7.69;54.48
36692;BME280;22678;52.052;4.242;2023-03-02T10:25:16;102579.44;;;7.76;54.84
36692;BME280;22678;52.052;4.242;2023-03-02T10:28:18;102572.91;;;7.91;54.81
36692;BME280;22678;52.052;4.242;2023-03-02T10:30:47;102553.78;;;7.95;54.54
36692;BME280;22678;52.052;4.242;2023-03-02T10:33:16;102558.78;;;8.16;54.72
36692;BME280;22678;52.052;4.242;2023-03-02T10:35:51;102562.63;;;8.29;54.61
36692;BME280;22678;52.052;4.242;2023-03-02T10:38:24;102567.28;;;8.39;53.87
36692;BME280;22678;52.052;4.242;2023-03-02T10:40:59;102569.31;;;8.48;54.02
36692;BME280;22678;52.052;4.242;2023-03-02T10:43:34;102573.94;;;8.56;53.62
36692;BME280;22678;52.052;4.242;2023-03-02T10:46:05;102554.06;;;8.65;53.55
36692;BME280;22678;52.052;4.242;2023-03-02T10:49:03;102564.81;;;8.74;53.44
36692;BME280;22678;52.052;4.242;2023-03-02T10:51:29;102568.38;;;8.76;53.15
36692;BME280;22678;52.052;4.242;2023-03-02T10:54:12;102563.94;;;8.73;52.78
36692;BME280;22678;52.052;4.242;2023-03-02T10:56:42;102568.38;;;8.76;53.16
36692;BME280;22678;52.052;4.242;2023-03-02T10:59:28;102570.44;;;8.88;53.41
36692;BME280;22678;52.052;4.242;2023-03-02T11:02:12;102574.16;;;8.98;53.09
36692;BME280;22678;52.052;4.242;2023-03-02T11:04:38;102567.94;;;8.92;52.84
36692;BME280;22678;52.052;4.242;2023-03-02T11:07:08;102555.03;;;9.02;53.01
36692;BME280;22678;52.052;4.242;2023-03-02T11:09:36;102555.28;;;9.11;53.10
36692;BME280;22678;52.052;4.242;2023-03-02T11:12:01;102550.09;;;9.14;53.06
36692;BME280;22678;52.052;4.242;2023-03-02T11:14:26;102563.63;;;9.29;53.34
36692;BME280;22678;52.052;4.242;2023-03-02T11:16:52;102559.41;;;9.38;53.68
36692;BME280;22678;52.052;4.242;2023-03-02T11:19:35;102556.91;;;9.41;52.83
36692;BME280;22678;52.052;4.242;2023-03-02T11:24:41;102562.19;;;9.42;52.94
36692;BME280;22678;52.052;4.242;2023-03-02T11:27:28;102574.81;;;9.59;53.04
36692;BME280;22678;52.052;4.242;2023-03-02T11:32:43;102556.38;;;9.56;52.48
36692;BME280;22678;52.052;4.242;2023-03-02T11:35:17;102563.59;;;9.64;52.67
36692;BME280;22678;52.052;4.242;2023-03-02T11:37:54;102565.63;;;9.78;52.40
36692;BME280;22678;52.052;4.242;2023-03-02T11:42:59;102549.41;;;9.97;52.70
36692;BME280;22678;52.052;4.242;2023-03-02T11:45:31;102568.28;;;10.19;52.05
36692;BME280;22678;52.052;4.242;2023-03-02T11:48:07;102568.22;;;10.16;51.00
36692;BME280;22678;52.052;4.242;2023-03-02T11:50:38;102558.44;;;10.09;51.47
36692;BME280;22678;52.052;4.242;2023-03-02T11:53:12;102564.00;;;10.24;51.55
36692;BME280;22678;52.052;4.242;2023-03-02T11:55:46;102559.03;;;10.37;51.18
36692;BME280;22678;52.052;4.242;2023-03-02T11:58:24;102546.84;;;10.42;50.76
36692;BME280;22678;52.052;4.242;2023-03-02T12:00:51;102550.53;;;10.50;51.02
36692;BME280;22678;52.052;4.242;2023-03-02T12:06:05;102548.25;;;10.70;49.55
36692;BME280;22678;52.052;4.242;2023-03-02T12:08:38;102543.72;;;10.61;50.01
36692;BME280;22678;52.052;4.242;2023-03-02T12:11:07;102543.69;;;10.60;50.13
36692;BME280;22678;52.052;4.242;2023-03-02T12:16:36;102537.72;;;10.68;50.09
36692;BME280;22678;52.052;4.242;2023-03-02T12:19:13;102533.44;;;10.74;50.05
36692;BME280;22678;52.052;4.242;2023-03-02T12:21:59;102525.44;;;10.67;49.11
36692;BME280;22678;52.052;4.242;2023-03-02T12:24:29;102531.81;;;10.82;49.24
36692;BME280;22678;52.052;4.242;2023-03-02T12:27:22;102531.00;;;10.86;49.40
36692;BME280;22678;52.052;4.242;2023-03-02T12:30:07;102509.13;;;10.89;49.30
36692;BME280;22678;52.052;4.242;2023-03-02T12:32:34;102519.13;;;11.10;49.02
36692;BME280;22678;52.052;4.242;2023-03-02T12:35:02;102522.78;;;11.18;48.25
36692;BME280;22678;52.052;4.242;2023-03-02T12:48:45;102517.75;;;11.33;47.13
36692;BME280;22678;52.052;4.242;2023-03-02T12:51:16;102512.59;;;11.39;47.24
36692;BME280;22678;52.052;4.242;2023-03-02T12:53:43;102510.03;;;11.46;46.49
36692;BME280;22678;52.052;4.242;2023-03-02T12:56:08;102502.19;;;11.49;46.53
36692;BME280;22678;52.052;4.242;2023-03-02T12:58:34;102502.44;;;11.67;46.86
36692;BME280;22678;52.052;4.242;2023-03-02T13:01:01;102504.38;;;11.81;46.72
36692;BME280;22678;52.052;4.242;2023-03-02T13:03:29;102492.22;;;11.92;46.57
36692;BME280;22678;52.052;4.242;2023-03-02T13:06:10;102506.25;;;11.91;46.15
36692;BME280;22678;52.052;4.242;2023-03-02T13:08:37;102483.41;;;11.88;45.80
36692;BME280;22678;52.052;4.242;2023-03-02T13:11:03;102489.53;;;11.87;45.37
36692;BME280;22678;52.052;4.242;2023-03-02T13:15:58;102475.56;;;11.93;45.57
36692;BME280;22678;52.052;4.242;2023-03-02T13:18:27;102466.09;;;12.07;45.90
36692;BME280;22678;52.052;4.242;2023-03-02T13:20:56;102467.97;;;12.19;46.40
36692;BME280;22678;52.052;4.242;2023-03-02T13:23:23;102466.25;;;12.23;45.47
36692;BME280;22678;52.052;4.242;2023-03-02T13:25:54;102464.47;;;12.22;45.27
36692;BME280;22678;52.052;4.242;2023-03-02T13:31:05;102456.63;;;12.26;45.85
36692;BME280;22678;52.052;4.242;2023-03-02T13:33:32;102448.75;;;12.31;46.32
36692;BME280;22678;52.052;4.242;2023-03-02T13:35:59;102445.19;;;12.29;46.38
36692;BME280;22678;52.052;4.242;2023-03-02T13:38:35;102442.53;;;12.26;46.29
36692;BME280;22678;52.052;4.242;2023-03-02T13:41:02;102446.84;;;12.18;45.97
36692;BME280;22678;52.052;4.242;2023-03-02T13:46:01;102446.75;;;12.12;45.87
36692;BME280;22678;52.052;4.242;2023-03-02T13:48:29;102431.75;;;12.03;45.84
36692;BME280;22678;52.052;4.242;2023-03-02T13:50:58;102443.25;;;12.09;46.33
36692;BME280;22678;52.052;4.242;2023-03-02T13:53:26;102434.47;;;12.11;46.33
36692;BME280;22678;52.052;4.242;2023-03-02T13:55:55;102429.13;;;12.04;46.29
36692;BME280;22678;52.052;4.242;2023-03-02T13:58:22;102446.75;;;12.12;46.45
36692;BME280;22678;52.052;4.242;2023-03-02T14:00:49;102437.09;;;12.09;46.56